Time;durP1;ratioP1;P1;durP2;ratioP2;P2;SDS_P1;SDS_P2;PMS_P1;PMS_P2;Temp;Humidity;BMP_temperature;BMP_pressure;BME280_temperature;BME280_humidity;BME280_pressure;Samples;Min_cycle;Max_cycle;Signal;HPM_P1;HPM_P2
2022/08/29 00:00:15;;;;;;;1.33;1.07;;;19.90;1.00;;;;;;5099423;28;20549;-72
2022/08/29 00:02:43;;;;;;;1.20;1.10;;;19.90;1.00;;;;;;5099719;28;20489;-71
2022/08/29 00:05:11;;;;;;;2.20;1.20;;;19.90;1.00;;;;;;5098840;28;20614;-71
2022/08/29 00:07:37;;;;;;;1.43;1.10;;;19.90;1.00;;;;;;5077236;28;20458;-71
2022/08/29 00:10:06;;;;;;;1.20;1.00;;;19.90;1.00;;;;;;5078167;28;20485;-71
2022/08/29 00:12:33;;;;;;;1.43;1.13;;;19.90;1.00;;;;;;5077639;28;20505;-71
2022/08/29 00:15:00;;;;;;;1.40;1.00;;;19.90;1.00;;;;;;5078746;28;20531;-72
2022/08/29 00:17:27;;;;;;;1.50;1.00;;;19.90;1.00;;;;;;5077626;28;20839;-71
2022/08/29 00:19:56;;;;;;;1.17;1.00;;;19.80;1.00;;;;;;5078804;28;20512;-71
2022/08/29 00:22:23;;;;;;;2.47;1.00;;;19.80;1.00;;;;;;5076480;28;20493;-72
2022/08/29 00:24:50;;;;;;;1.30;1.03;;;19.80;1.00;;;;;;5078586;28;20447;-71
2022/08/29 00:27:17;;;;;;;1.23;1.00;;;19.70;1.00;;;;;;5076438;28;20458;-72
2022/08/29 00:29:44;;;;;;;1.67;1.00;;;19.70;1.00;;;;;;5078666;28;20954;-71
2022/08/29 00:32:11;;;;;;;1.13;0.93;;;19.60;1.00;;;;;;5075380;28;20454;-72
2022/08/29 00:34:37;;;;;;;2.10;1.00;;;19.60;1.00;;;;;;5078430;28;20758;-72
2022/08/29 00:37:06;;;;;;;2.03;1.10;;;19.60;1.00;;;;;;5075392;28;20458;-72
2022/08/29 00:39:33;;;;;;;2.07;1.00;;;19.60;1.00;;;;;;5079009;28;20469;-72
2022/08/29 00:42:00;;;;;;;3.53;1.10;;;19.60;1.00;;;;;;5074915;28;20455;-73
2022/08/29 00:44:27;;;;;;;1.70;1.10;;;19.50;1.00;;;;;;5078782;28;20536;-73
2022/08/29 00:46:57;;;;;;;1.40;1.10;;;19.50;1.00;;;;;;5077512;28;20458;-71
2022/08/29 00:49:33;;;;;;;2.27;1.00;;;19.60;1.00;;;;;;5078794;28;20769;-71
2022/08/29 00:52:05;;;;;;;1.20;0.90;;;19.60;1.00;;;;;;5076273;28;20493;-71
2022/08/29 00:54:33;;;;;;;1.50;1.00;;;19.60;1.00;;;;;;5079620;28;20812;-72
2022/08/29 00:57:01;;;;;;;2.00;1.00;;;19.60;1.00;;;;;;5076784;28;20549;-72
2022/08/29 00:59:34;;;;;;;1.30;1.00;;;19.60;1.00;;;;;;5080150;28;20474;-72
2022/08/29 01:02:03;;;;;;;1.33;1.00;;;19.60;1.00;;;;;;5077625;28;20478;-72
2022/08/29 01:04:31;;;;;;;1.10;0.90;;;19.50;1.00;;;;;;5081571;28;20549;-72
2022/08/29 01:06:58;;;;;;;1.97;1.00;;;19.50;1.00;;;;;;5096499;28;20545;-73
2022/08/29 01:09:27;;;;;;;1.60;1.07;;;19.40;1.00;;;;;;5099876;28;20923;-72
2022/08/29 01:14:46;;;;;;;1.10;0.90;;;19.40;1.00;;;;;;5098214;28;20416;-72
2022/08/29 01:17:18;;;;;;;1.43;1.00;;;19.30;1.00;;;;;;5096443;28;20464;-72
2022/08/29 01:19:51;;;;;;;1.93;0.90;;;19.30;1.00;;;;;;5098159;28;20809;-72
2022/08/29 01:22:43;;;;;;;2.17;1.00;;;19.30;1.00;;;;;;5095849;28;21018;-72
2022/08/29 01:25:15;;;;;;;1.60;0.90;;;19.30;1.00;;;;;;5088583;28;20449;-72
2022/08/29 01:27:46;;;;;;;1.73;1.00;;;19.30;1.00;;;;;;5095736;28;20453;-72
2022/08/29 01:30:15;;;;;;;1.50;1.00;;;19.30;1.00;;;;;;5099286;28;20441;-71
2022/08/29 01:32:42;;;;;;;2.17;1.00;;;19.30;1.00;;;;;;5095974;28;20492;-72
2022/08/29 01:35:09;;;;;;;1.27;0.93;;;19.20;1.00;;;;;;5097780;28;20489;-71
2022/08/29 01:37:38;;;;;;;1.00;0.80;;;19.10;1.00;;;;;;5096013;28;20822;-72
2022/08/29 01:40:06;;;;;;;2.03;1.10;;;19.00;1.00;;;;;;5097152;28;20441;-72
2022/08/29 01:42:35;;;;;;;1.30;1.00;;;19.00;1.00;;;;;;5095766;28;20481;-72
2022/08/29 01:45:04;;;;;;;2.07;1.10;;;19.00;1.00;;;;;;5097049;28;20437;-72
2022/08/29 01:47:34;;;;;;;1.90;0.90;;;19.10;1.00;;;;;;5095134;28;20457;-72
2022/08/29 01:50:01;;;;;;;3.27;1.37;;;19.00;1.00;;;;;;5097028;28;20510;-71
2022/08/29 01:52:30;;;;;;;2.37;1.07;;;19.00;1.00;;;;;;5095751;28;20461;-72
2022/08/29 01:54:59;;;;;;;1.40;1.00;;;19.00;1.00;;;;;;5097295;28;20748;-71
2022/08/29 01:57:26;;;;;;;1.43;1.00;;;19.10;1.00;;;;;;5095633;28;20453;-72
2022/08/29 01:59:54;;;;;;;2.03;0.90;;;19.20;1.00;;;;;;5097184;28;20481;-71
2022/08/29 02:02:25;;;;;;;2.20;1.00;;;19.20;1.00;;;;;;5094391;28;20453;-72
2022/08/29 02:04:53;;;;;;;1.50;0.90;;;19.30;1.00;;;;;;5097234;28;20499;-72
2022/08/29 02:07:23;;;;;;;1.47;1.00;;;19.20;1.00;;;;;;5076213;28;20549;-71
2022/08/29 02:09:50;;;;;;;1.63;0.90;;;19.20;1.00;;;;;;5076368;28;20462;-72
2022/08/29 02:12:19;;;;;;;1.30;0.80;;;19.10;1.00;;;;;;5073883;28;20528;-72
2022/08/29 02:14:46;;;;;;;1.80;1.07;;;19.10;1.00;;;;;;5075618;28;20435;-73
2022/08/29 02:17:15;;;;;;;2.40;1.10;;;19.00;1.00;;;;;;5076518;28;20446;-73
2022/08/29 02:19:42;;;;;;;2.60;0.90;;;18.90;1.00;;;;;;5076579;28;20454;-72
2022/08/29 02:22:10;;;;;;;2.17;0.80;;;18.80;1.00;;;;;;5074210;28;20455;-72
2022/08/29 02:24:37;;;;;;;2.60;1.10;;;18.80;1.00;;;;;;5076734;28;20873;-71
2022/08/29 02:27:05;;;;;;;1.80;1.00;;;18.80;1.00;;;;;;5074768;28;20503;-72
2022/08/29 02:29:32;;;;;;;1.70;1.00;;;18.80;1.00;;;;;;5075883;28;20462;-72
2022/08/29 02:31:58;;;;;;;1.53;1.10;;;18.70;1.00;;;;;;5077122;28;20508;-72
2022/08/29 02:34:29;;;;;;;1.50;0.90;;;18.70;1.00;;;;;;5076424;28;20501;-72
2022/08/29 02:36:58;;;;;;;2.23;1.10;;;18.70;1.00;;;;;;5073774;28;20458;-72
2022/08/29 02:39:25;;;;;;;1.47;1.00;;;18.70;1.00;;;;;;5076569;28;20446;-71
2022/08/29 02:41:55;;;;;;;1.30;1.00;;;18.70;1.00;;;;;;5074825;28;20458;-71
2022/08/29 02:44:23;;;;;;;1.50;1.10;;;18.70;1.00;;;;;;5076122;28;20865;-72
2022/08/29 02:46:50;;;;;;;1.90;1.20;;;18.70;1.00;;;;;;5076505;28;20540;-72
2022/08/29 02:49:17;;;;;;;1.67;1.07;;;18.70;1.00;;;;;;5075519;28;20532;-72
2022/08/29 02:51:46;;;;;;;1.37;1.00;;;18.70;1.00;;;;;;5075015;28;20886;-72
2022/08/29 02:54:13;;;;;;;1.60;1.10;;;18.70;1.00;;;;;;5077134;28;20649;-72
2022/08/29 02:56:40;;;;;;;2.03;1.10;;;18.70;1.00;;;;;;5075207;28;20458;-71
2022/08/29 02:59:08;;;;;;;2.60;1.10;;;18.70;1.00;;;;;;5076657;28;20446;-71
2022/08/29 03:01:37;;;;;;;2.20;1.00;;;18.60;1.00;;;;;;5075381;28;20705;-71
2022/08/29 03:04:05;;;;;;;2.60;1.00;;;18.50;1.00;;;;;;5076781;28;20493;-72
2022/08/29 03:06:32;;;;;;;1.47;1.03;;;18.50;1.00;;;;;;5074620;28;20572;-71
2022/08/29 03:09:01;;;;;;;1.30;0.90;;;18.40;1.00;;;;;;5076242;28;20542;-72
2022/08/29 03:11:28;;;;;;;3.27;1.00;;;18.40;1.00;;;;;;5074022;28;20458;-71
2022/08/29 03:13:55;;;;;;;1.50;0.90;;;18.40;1.00;;;;;;5075877;28;20905;-72
2022/08/29 03:16:22;;;;;;;1.40;1.10;;;18.50;1.00;;;;;;5073750;28;20462;-71
2022/08/29 03:18:49;;;;;;;1.30;1.03;;;18.40;1.00;;;;;;5076014;28;20439;-71
2022/08/29 03:21:19;;;;;;;2.00;1.00;;;18.30;1.00;;;;;;5073713;28;20454;-71
2022/08/29 03:23:46;;;;;;;1.30;0.80;;;18.40;1.00;;;;;;5076043;28;20485;-72
2022/08/29 03:26:15;;;;;;;5.63;1.23;;;18.30;1.00;;;;;;5076983;28;20553;-71
2022/08/29 03:28:42;;;;;;;1.70;1.07;;;18.30;1.00;;;;;;5078108;28;20450;-71
2022/08/29 03:31:10;;;;;;;1.50;1.10;;;18.30;1.00;;;;;;5075945;28;20449;-71
2022/08/29 03:33:37;;;;;;;1.43;1.00;;;18.20;1.00;;;;;;5079107;28;20851;-72
2022/08/29 03:36:05;;;;;;;1.87;1.30;;;18.20;1.00;;;;;;5077493;28;20482;-71
2022/08/29 03:38:34;;;;;;;1.63;1.10;;;18.10;1.00;;;;;;5078809;28;20509;-72
2022/08/29 03:41:01;;;;;;;1.60;1.10;;;18.10;1.00;;;;;;5077342;28;20537;-72
2022/08/29 03:43:29;;;;;;;1.50;1.00;;;18.10;1.00;;;;;;5077960;28;20937;-72
2022/08/29 03:45:56;;;;;;;2.03;1.17;;;18.20;1.00;;;;;;5078142;28;20536;-71
2022/08/29 03:48:23;;;;;;;1.60;1.20;;;18.20;1.00;;;;;;5079822;28;20936;-72
2022/08/29 03:50:50;;;;;;;1.20;1.00;;;18.10;1.00;;;;;;5080040;28;20463;-71
2022/08/29 03:53:17;;;;;;;2.07;1.20;;;18.10;1.00;;;;;;5078769;28;20442;-72
2022/08/29 03:55:45;;;;;;;1.63;1.10;;;18.00;1.00;;;;;;5077142;28;20780;-72
2022/08/29 03:58:12;;;;;;;1.10;0.83;;;18.00;1.00;;;;;;5075419;28;20460;-71
2022/08/29 04:00:40;;;;;;;3.13;1.00;;;17.90;1.00;;;;;;5077847;28;20446;-71
2022/08/29 04:03:07;;;;;;;1.30;1.00;;;17.90;1.00;;;;;;5074918;28;20509;-72
2022/08/29 04:05:35;;;;;;;2.53;1.10;;;17.90;1.00;;;;;;5077544;28;20517;-72
2022/08/29 04:08:03;;;;;;;2.30;0.97;;;17.90;1.00;;;;;;5076374;28;20541;-71
2022/08/29 04:10:32;;;;;;;1.60;1.00;;;18.00;1.00;;;;;;5077837;28;20450;-72
2022/08/29 04:12:59;;;;;;;1.50;1.10;;;18.00;1.00;;;;;;5086124;28;20544;-73
2022/08/29 04:15:28;;;;;;;1.60;1.17;;;17.90;1.00;;;;;;5081484;28;20438;-71
2022/08/29 04:17:58;;;;;;;1.77;1.10;;;17.80;1.00;;;;;;5081679;28;20519;-71
2022/08/29 04:20:29;;;;;;;1.40;1.20;;;17.90;1.00;;;;;;5098237;28;20540;-71
2022/08/29 04:22:58;;;;;;;2.80;1.00;;;17.80;1.00;;;;;;5096249;28;20806;-71
2022/08/29 04:25:27;;;;;;;1.20;0.90;;;17.90;1.00;;;;;;5097757;28;20564;-71
2022/08/29 04:27:55;;;;;;;1.93;1.33;;;17.80;1.00;;;;;;5096352;28;20453;-71
2022/08/29 04:30:25;;;;;;;4.23;2.23;;;17.80;1.00;;;;;;5089782;28;20443;-71
2022/08/29 04:32:52;;;;;;;2.70;1.03;;;17.80;1.00;;;;;;5075758;28;20508;-72
2022/08/29 04:35:21;;;;;;;2.23;1.40;;;17.80;1.00;;;;;;5077421;28;20442;-71
2022/08/29 04:37:49;;;;;;;1.70;1.10;;;17.70;1.00;;;;;;5075152;28;20503;-71
2022/08/29 04:40:19;;;;;;;2.37;1.17;;;17.70;1.00;;;;;;5078446;28;20451;-71
2022/08/29 04:42:47;;;;;;;2.23;1.10;;;17.80;2.60;;;;;;5075659;28;20501;-71
2022/08/29 04:45:16;;;;;;;2.07;1.00;;;17.80;1.00;;;;;;5076806;28;20485;-71
2022/08/29 04:47:44;;;;;;;1.80;1.10;;;17.80;1.00;;;;;;5076191;28;20458;-71
2022/08/29 04:50:13;;;;;;;2.33;1.20;;;17.80;1.00;;;;;;5079069;28;20533;-71
2022/08/29 04:52:42;;;;;;;2.00;1.10;;;17.80;1.00;;;;;;5077353;28;20463;-71
2022/08/29 04:55:11;;;;;;;1.40;1.00;;;17.80;1.00;;;;;;5078480;28;20813;-70
2022/08/29 04:57:39;;;;;;;1.37;1.00;;;17.80;1.00;;;;;;5077206;28;20462;-71
2022/08/29 05:00:11;;;;;;;1.20;1.00;;;17.90;1.00;;;;;;5077521;28;20537;-70
2022/08/29 05:02:39;;;;;;;2.03;1.00;;;17.80;1.00;;;;;;5076314;28;20905;-70
2022/08/29 05:05:08;;;;;;;1.50;1.10;;;17.80;1.00;;;;;;5077050;28;20569;-72
2022/08/29 05:07:35;;;;;;;2.20;1.20;;;17.70;1.00;;;;;;5077151;28;20567;-71
2022/08/29 05:10:08;;;;;;;1.70;1.10;;;17.70;1.00;;;;;;5078305;28;20534;-71
2022/08/29 05:12:35;;;;;;;1.93;1.10;;;17.70;1.00;;;;;;5076365;28;20486;-71
2022/08/29 05:15:02;;;;;;;1.83;1.10;;;17.70;1.00;;;;;;5077146;28;20776;-72
2022/08/29 05:17:29;;;;;;;1.27;1.00;;;17.80;1.00;;;;;;5074782;28;20526;-72
2022/08/29 05:19:56;;;;;;;3.40;1.20;;;17.70;1.00;;;;;;5074623;28;20544;-71
2022/08/29 05:22:25;;;;;;;1.50;1.03;;;17.80;1.00;;;;;;5074397;28;20442;-71
2022/08/29 05:24:52;;;;;;;1.30;1.00;;;17.90;1.00;;;;;;5076021;28;20510;-71
2022/08/29 05:27:22;;;;;;;2.37;1.10;;;17.90;1.00;;;;;;5074709;28;20454;-71
2022/08/29 05:29:51;;;;;;;1.50;1.00;;;17.90;1.00;;;;;;5076907;28;20457;-71
2022/08/29 05:32:20;;;;;;;1.70;1.10;;;18.00;1.00;;;;;;5074457;28;20458;-71
2022/08/29 05:34:48;;;;;;;2.63;1.10;;;18.10;1.00;;;;;;5077943;28;20449;-72
2022/08/29 05:37:21;;;;;;;1.73;1.00;;;18.20;1.00;;;;;;5075343;28;20813;-72
2022/08/29 05:39:49;;;;;;;1.63;1.10;;;18.20;1.00;;;;;;5077260;28;20462;-72
2022/08/29 05:42:20;;;;;;;2.90;1.30;;;18.10;1.00;;;;;;5074764;28;20455;-73
2022/08/29 05:44:50;;;;;;;2.50;1.03;;;18.00;1.00;;;;;;5077514;28;20482;-70
2022/08/29 05:47:19;;;;;;;1.87;1.07;;;18.00;1.00;;;;;;5073262;28;20980;-71
2022/08/29 05:49:47;;;;;;;1.60;1.00;;;18.00;1.00;;;;;;5076874;28;20897;-71
2022/08/29 05:52:16;;;;;;;1.70;1.10;;;18.00;1.00;;;;;;5074545;28;20455;-72
2022/08/29 05:54:44;;;;;;;1.90;1.20;;;18.10;1.00;;;;;;5076788;28;20453;-71
2022/08/29 05:57:13;;;;;;;2.80;1.07;;;18.10;1.00;;;;;;5073652;28;20455;-71
2022/08/29 05:59:40;;;;;;;2.23;1.17;;;18.10;1.00;;;;;;5074498;28;20478;-71
2022/08/29 06:02:10;;;;;;;1.97;1.07;;;18.00;1.00;;;;;;5073098;28;20462;-72
2022/08/29 06:04:37;;;;;;;1.73;1.10;;;18.00;1.00;;;;;;5090961;28;20477;-71
2022/08/29 06:07:05;;;;;;;5.47;3.33;;;17.90;1.00;;;;;;5118459;27;20500;-71
2022/08/29 06:09:33;;;;;;;1.87;1.10;;;17.80;1.00;;;;;;5137879;27;20504;-71
2022/08/29 06:11:59;;;;;;;2.97;1.20;;;17.70;1.00;;;;;;5129817;27;20515;-71
2022/08/29 06:14:27;;;;;;;1.57;1.00;;;17.70;1.00;;;;;;5116901;27;20461;-71
2022/08/29 06:16:55;;;;;;;1.70;1.20;;;17.90;1.00;;;;;;5114973;28;20464;-71
2022/08/29 06:19:24;;;;;;;1.40;0.90;;;17.90;1.00;;;;;;5110758;27;20450;-77
2022/08/29 06:25:09;;;;;;;2.50;1.37;;;18.00;1.00;;;;;;5071574;27;20487;-77
2022/08/29 06:27:36;;;;;;;3.10;1.30;;;17.90;1.00;;;;;;5136029;27;20451;-76
2022/08/29 06:30:05;;;;;;;3.50;1.20;;;17.90;1.00;;;;;;5137884;27;20443;-77
2022/08/29 06:32:32;;;;;;;2.10;1.40;;;17.90;1.00;;;;;;5119453;27;20479;-78
2022/08/29 06:35:01;;;;;;;1.87;1.30;;;17.90;1.00;;;;;;5138861;27;20531;-79
2022/08/29 06:37:28;;;;;;;4.83;1.20;;;18.00;1.00;;;;;;5137312;27;20453;-77
2022/08/29 06:39:55;;;;;;;3.90;1.60;;;18.20;1.00;;;;;;5139369;27;20485;-78
2022/08/29 06:42:23;;;;;;;2.40;1.40;;;18.40;1.00;;;;;;5135609;27;20452;-78
2022/08/29 06:44:51;;;;;;;1.93;1.30;;;18.50;1.00;;;;;;5137586;27;20566;-78
2022/08/29 06:47:18;;;;;;;1.83;1.20;;;18.70;1.00;;;;;;5137034;28;20447;-78
2022/08/29 06:49:45;;;;;;;2.30;1.80;;;18.80;1.00;;;;;;5137732;28;20936;-78
2022/08/29 06:52:14;;;;;;;3.00;2.10;;;18.70;1.00;;;;;;5137367;28;20452;-77
2022/08/29 06:54:41;;;;;;;2.60;1.10;;;18.80;1.00;;;;;;5139531;28;20443;-77
2022/08/29 06:57:08;;;;;;;6.90;1.77;;;18.80;1.00;;;;;;5138690;28;21055;-79
2022/08/29 06:59:36;;;;;;;3.50;1.97;;;18.90;1.00;;;;;;5142106;27;20470;-80
2022/08/29 07:02:03;;;;;;;1.93;1.13;;;18.90;1.00;;;;;;5142884;27;20463;-79
2022/08/29 07:04:38;;;;;;;4.90;1.53;;;18.90;1.00;;;;;;5144856;27;20540;-79
2022/08/29 07:07:10;;;;;;;2.17;1.20;;;19.20;1.00;;;;;;5144068;27;20479;-79
2022/08/29 07:09:39;;;;;;;3.60;1.57;;;19.20;1.00;;;;;;5143876;27;20468;-80
2022/08/29 07:12:06;;;;;;;3.60;1.70;;;19.40;1.00;;;;;;5141746;27;20927;-79
2022/08/29 07:14:33;;;;;;;2.67;1.50;;;19.40;1.00;;;;;;5143745;27;20514;-81
2022/08/29 07:17:00;;;;;;;4.53;1.10;;;19.30;1.00;;;;;;5143156;27;20911;-80
2022/08/29 07:19:27;;;;;;;2.63;1.67;;;19.40;1.00;;;;;;5143353;27;20441;-79
2022/08/29 07:21:54;;;;;;;4.20;1.83;;;19.40;1.00;;;;;;5139678;27;20436;-78
2022/08/29 07:24:23;;;;;;;2.37;1.30;;;19.40;1.00;;;;;;5141770;27;20475;-79
2022/08/29 07:26:52;;;;;;;1.90;1.50;;;19.80;1.00;;;;;;5109000;27;20468;-79
2022/08/29 07:29:22;;;;;;;2.33;1.33;;;20.10;99.90;;;;;;5105619;28;20470;-79
2022/08/29 07:31:49;;;;;;;1.80;1.67;;;20.20;1.00;;;;;;5116833;28;20460;-77
2022/08/29 07:34:18;;;;;;;3.00;2.50;;;20.40;1.00;;;;;;5103443;28;20491;-77
2022/08/29 07:36:46;;;;;;;5.20;3.23;;;20.40;99.90;;;;;;5106037;28;20458;-78
2022/08/29 07:39:16;;;;;;;3.43;1.73;;;20.40;1.00;;;;;;5130837;27;20456;-77
2022/08/29 07:41:44;;;;;;;3.00;2.17;;;20.50;1.00;;;;;;5121890;27;20470;-77
2022/08/29 07:44:13;;;;;;;2.40;1.83;;;20.60;1.00;;;;;;5130752;27;20452;-76
2022/08/29 07:46:41;;;;;;;2.37;1.80;;;20.70;99.90;;;;;;5128910;27;20447;-77
2022/08/29 07:49:10;;;;;;;3.50;1.60;;;20.80;56.10;;;;;;5121334;28;21028;-77
2022/08/29 07:51:37;;;;;;;3.30;2.27;;;20.80;36.00;;;;;;5109121;28;20449;-77
2022/08/29 07:54:06;;;;;;;4.67;2.60;;;20.80;1.00;;;;;;5101106;28;20453;-76
2022/08/29 07:56:38;;;;;;;2.17;1.57;;;20.80;1.00;;;;;;5109623;28;20472;-77
2022/08/29 07:59:06;;;;;;;3.93;2.17;;;20.90;99.90;;;;;;5115070;28;20539;-77
2022/08/29 08:01:35;;;;;;;3.60;1.80;;;20.90;1.00;;;;;;5122596;28;20535;-76
2022/08/29 08:04:02;;;;;;;2.00;1.40;;;20.90;99.90;;;;;;5108403;28;20584;-76
2022/08/29 08:06:29;;;;;;;2.93;1.83;;;20.90;99.90;;;;;;5105400;28;20602;-78
2022/08/29 08:08:56;;;;;;;1.67;1.20;;;21.00;99.90;;;;;;5099068;28;20465;-77
2022/08/29 08:11:25;;;;;;;3.13;2.63;;;21.10;27.90;;;;;;5107497;28;20458;-77
2022/08/29 08:13:52;;;;;;;1.80;1.50;;;21.10;1.00;;;;;;5098456;28;20537;-77
2022/08/29 08:16:21;;;;;;;4.73;2.57;;;21.30;1.00;;;;;;5101558;28;20441;-77
2022/08/29 08:18:53;;;;;;;1.50;1.20;;;21.30;99.90;;;;;;5100181;28;20952;-77
2022/08/29 08:21:21;;;;;;;2.70;1.63;;;21.40;99.90;;;;;;5084797;28;20442;-78
2022/08/29 08:23:48;;;;;;;2.57;1.77;;;21.50;1.00;;;;;;5099170;28;20509;-77
2022/08/29 08:26:18;;;;;;;3.10;1.70;;;21.50;1.00;;;;;;5102281;28;20517;-77
2022/08/29 08:28:46;;;;;;;2.73;1.67;;;21.30;99.90;;;;;;5100242;28;20526;-80
2022/08/29 08:31:14;;;;;;;2.37;1.40;;;21.40;1.00;;;;;;5102345;28;20506;-77
2022/08/29 08:33:43;;;;;;;3.43;1.87;;;21.60;1.00;;;;;;5111014;27;20501;-78
2022/08/29 08:36:15;;;;;;;2.33;2.00;;;21.80;1.00;;;;;;5109153;28;20544;-78
2022/08/29 08:38:43;;;;;;;3.03;1.43;;;22.00;99.90;;;;;;5109867;28;20469;-77
2022/08/29 08:41:44;;;;;;;2.37;1.20;;;22.10;28.70;;;;;;5107191;28;20885;-75
2022/08/29 08:44:28;;;;;;;3.20;1.60;;;22.20;1.00;;;;;;5101650;28;20509;-78
2022/08/29 08:46:58;;;;;;;3.37;1.93;;;22.40;1.00;;;;;;5132623;27;20732;-78
2022/08/29 08:49:35;;;;;;;2.53;1.40;;;22.50;1.00;;;;;;5145038;27;20483;-78
2022/08/29 08:52:14;;;;;;;2.70;1.67;;;22.50;1.00;;;;;;5146805;27;20443;-78
2022/08/29 08:54:48;;;;;;;3.07;1.60;;;22.50;1.00;;;;;;5148499;27;20452;-79
2022/08/29 08:57:15;;;;;;;3.90;1.20;;;22.50;1.00;;;;;;5146911;27;20825;-79
2022/08/29 08:59:46;;;;;;;4.13;1.50;;;22.60;1.00;;;;;;5140964;27;20444;-78
2022/08/29 09:02:26;;;;;;;2.37;1.50;;;22.90;1.00;;;;;;5125341;27;20556;-78
2022/08/29 09:05:03;;;;;;;2.67;2.10;;;23.00;1.00;;;;;;5123028;28;20781;-79
2022/08/29 09:07:46;;;;;;;2.63;1.70;;;23.00;1.00;;;;;;5123525;28;20870;-78
2022/08/29 09:10:27;;;;;;;3.17;1.67;;;23.10;99.90;;;;;;5120742;28;20448;-77
2022/08/29 09:13:07;;;;;;;3.20;2.90;;;23.10;99.90;;;;;;5121506;27;20440;-77
2022/08/29 09:15:39;;;;;;;2.73;2.33;;;23.20;99.90;;;;;;5130998;28;20486;-78
2022/08/29 09:18:11;;;;;;;6.50;1.57;;;23.20;99.90;;;;;;5110390;28;20442;-77
2022/08/29 09:20:39;;;;;;;2.40;1.97;;;23.30;99.90;;;;;;5108504;28;20460;-77
2022/08/29 09:23:18;;;;;;;2.20;1.27;;;23.40;99.90;;;;;;5101711;28;20442;-75
2022/08/29 09:25:45;;;;;;;1.97;1.30;;;23.40;99.90;;;;;;5098391;28;21013;-76
2022/08/29 09:28:12;;;;;;;4.17;1.00;;;23.60;99.90;;;;;;5099575;28;20751;-76
2022/08/29 09:30:43;;;;;;;4.07;1.50;;;23.60;99.90;;;;;;5097852;28;20437;-73
2022/08/29 09:33:12;;;;;;;6.33;2.73;;;23.80;99.90;;;;;;5098887;28;20306;-74
2022/08/29 09:35:42;;;;;;;2.20;1.30;;;23.90;99.90;;;;;;5097335;28;20490;-74
2022/08/29 09:38:20;;;;;;;2.53;2.10;;;23.90;99.90;;;;;;5094705;28;21175;-74
2022/08/29 09:40:53;;;;;;;2.60;1.20;;;24.10;87.00;;;;;;5097825;28;20454;-75
2022/08/29 09:43:25;;;;;;;2.47;1.20;;;24.30;26.40;;;;;;5096292;28;20460;-74
2022/08/29 09:46:19;;;;;;;3.67;1.40;;;24.50;16.40;;;;;;5116315;28;20485;-74
2022/08/29 09:48:48;;;;;;;1.37;1.10;;;24.60;1.00;;;;;;5106489;28;20475;-74
2022/08/29 09:51:23;;;;;;;2.70;1.13;;;24.70;1.00;;;;;;5100065;28;20462;-75
2022/08/29 09:53:52;;;;;;;1.90;1.00;;;24.70;1.00;;;;;;5096865;28;20506;-75
2022/08/29 09:56:23;;;;;;;1.30;1.00;;;24.80;1.00;;;;;;5111397;27;20532;-73
2022/08/29 09:59:01;;;;;;;1.87;1.30;;;24.90;1.00;;;;;;5096723;28;20454;-74
2022/08/29 10:01:31;;;;;;;1.20;1.00;;;24.90;1.00;;;;;;5098448;28;20802;-74
2022/08/29 10:03:59;;;;;;;1.80;1.10;;;25.10;1.00;;;;;;5124227;27;20449;-73
2022/08/29 10:06:30;;;;;;;1.60;1.10;;;25.10;1.00;;;;;;5105710;28;20542;-73
2022/08/29 10:09:04;;;;;;;1.60;1.00;;;25.30;1.00;;;;;;5109362;28;20809;-73
2022/08/29 10:11:38;;;;;;;1.50;1.40;;;25.40;1.00;;;;;;5115286;28;20444;-73
2022/08/29 10:14:10;;;;;;;3.37;1.00;;;25.80;1.00;;;;;;5108292;28;20457;-73
2022/08/29 10:16:45;;;;;;;1.67;1.20;;;26.10;1.00;;;;;;5098198;28;20932;-73
2022/08/29 10:19:18;;;;;;;1.70;1.10;;;26.40;1.00;;;;;;5102276;28;20917;-73
2022/08/29 10:21:55;;;;;;;1.73;1.10;;;26.20;1.00;;;;;;5114818;28;20445;-73
2022/08/29 10:24:53;;;;;;;1.57;1.00;;;26.30;1.00;;;;;;5114342;28;20907;-74
2022/08/29 10:27:29;;;;;;;2.87;1.10;;;26.30;1.00;;;;;;5106988;28;20733;-74
2022/08/29 10:30:08;;;;;;;2.40;1.40;;;26.30;1.00;;;;;;5097701;28;20449;-74
2022/08/29 10:33:15;;;;;;;2.63;1.07;;;26.60;1.00;;;;;;5096318;28;20473;-74
2022/08/29 10:35:49;;;;;;;1.93;1.10;;;27.10;1.00;;;;;;5093409;28;20442;-74
2022/08/29 10:38:25;;;;;;;1.70;1.00;;;27.30;1.00;;;;;;5093675;28;20943;-73
2022/08/29 10:41:04;;;;;;;1.30;1.10;;;27.20;1.00;;;;;;5095070;28;20441;-74
2022/08/29 10:43:39;;;;;;;2.03;1.07;;;27.20;1.00;;;;;;5094588;28;20480;-73
2022/08/29 10:46:17;;;;;;;2.20;1.30;;;27.40;1.00;;;;;;5110706;28;20484;-73
2022/08/29 10:48:54;;;;;;;1.90;1.20;;;27.80;1.00;;;;;;5098049;28;20449;-73
2022/08/29 10:51:28;;;;;;;1.23;1.00;;;28.10;1.00;;;;;;5092762;28;20453;-73
2022/08/29 10:54:02;;;;;;;1.10;1.00;;;28.20;1.00;;;;;;5096078;28;20486;-73
2022/08/29 10:56:38;;;;;;;2.50;1.00;;;28.10;1.00;;;;;;5093205;28;20450;-73
2022/08/29 10:59:17;;;;;;;1.37;1.00;;;28.30;1.00;;;;;;5098138;28;20453;-74
2022/08/29 11:01:47;;;;;;;1.40;1.00;;;28.50;1.00;;;;;;5114238;28;20488;-73
2022/08/29 11:04:19;;;;;;;1.50;1.20;;;28.70;1.00;;;;;;5113413;28;20836;-74
2022/08/29 11:06:54;;;;;;;2.10;1.00;;;28.60;1.00;;;;;;5108469;28;20508;-74
2022/08/29 11:09:28;;;;;;;1.40;1.10;;;28.40;1.00;;;;;;5097939;28;20452;-75
2022/08/29 11:12:10;;;;;;;1.57;0.90;;;28.20;1.00;;;;;;5095676;28;20441;-74
2022/08/29 11:14:43;;;;;;;3.97;2.33;;;28.10;1.00;;;;;;5097221;28;20480;-75
2022/08/29 11:17:14;;;;;;;1.20;0.93;;;27.70;1.00;;;;;;5094569;28;20514;-74
2022/08/29 11:19:50;;;;;;;1.63;1.10;;;27.90;1.00;;;;;;5079145;28;20453;-75
2022/08/29 11:22:21;;;;;;;1.50;0.90;;;28.30;1.00;;;;;;5094444;28;20456;-75
2022/08/29 11:24:57;;;;;;;1.10;0.90;;;28.50;1.00;;;;;;5096464;28;20499;-75
2022/08/29 11:27:34;;;;;;;1.20;0.90;;;28.50;1.00;;;;;;5095973;28;20489;-75
2022/08/29 11:30:05;;;;;;;2.90;1.10;;;28.00;1.00;;;;;;5095644;28;21008;-75
2022/08/29 11:32:43;;;;;;;1.30;0.90;;;28.00;1.00;;;;;;5095042;28;20530;-76
2022/08/29 11:35:19;;;;;;;1.03;0.80;;;28.20;1.00;;;;;;5093533;28;20503;-75
2022/08/29 11:38:27;;;;;;;1.23;1.00;;;28.60;1.00;;;;;;5092021;28;20457;-75
2022/08/29 11:41:11;;;;;;;1.47;0.80;;;28.70;1.00;;;;;;5096377;28;20440;-75
2022/08/29 11:43:44;;;;;;;1.70;0.93;;;29.00;1.00;;;;;;5095138;28;20445;-75
2022/08/29 11:46:13;;;;;;;0.97;0.80;;;29.20;1.00;;;;;;5096359;28;20477;-75
2022/08/29 11:48:42;;;;;;;2.13;0.90;;;29.20;1.00;;;;;;5097085;28;20881;-75
2022/08/29 11:51:33;;;;;;;1.30;1.00;;;29.30;1.00;;;;;;5100242;28;20475;-75
2022/08/29 11:54:33;;;;;;;1.17;0.90;;;29.00;1.00;;;;;;5098958;28;20449;-75
2022/08/29 11:57:34;;;;;;;1.10;0.80;;;29.10;1.00;;;;;;5097542;28;20499;-74
2022/08/29 12:00:23;;;;;;;1.43;0.90;;;29.10;1.00;;;;;;5099357;28;20453;-75
2022/08/29 12:02:50;;;;;;;1.73;0.87;;;29.40;1.00;;;;;;5099298;28;20457;-75
2022/08/29 12:05:52;;;;;;;1.20;0.90;;;29.00;1.00;;;;;;5100070;28;20450;-75
2022/08/29 12:08:32;;;;;;;1.10;1.00;;;29.10;1.00;;;;;;5097811;28;20965;-75
2022/08/29 12:11:00;;;;;;;1.00;0.80;;;28.80;1.00;;;;;;5098729;28;20437;-74
2022/08/29 12:14:01;;;;;;;1.30;0.90;;;28.60;1.00;;;;;;5097438;28;20453;-76
2022/08/29 12:16:48;;;;;;;1.00;0.80;;;28.40;1.00;;;;;;5076346;28;20462;-75
2022/08/29 12:19:47;;;;;;;1.10;0.87;;;28.70;1.00;;;;;;5099522;28;20514;-76
2022/08/29 12:22:47;;;;;;;1.20;0.90;;;29.10;1.00;;;;;;5098767;28;20441;-76
2022/08/29 12:25:43;;;;;;;15.20;12.97;;;29.00;1.00;;;;;;5098782;28;20473;-75
2022/08/29 12:28:35;;;;;;;1.33;1.20;;;28.60;1.00;;;;;;5091616;28;20514;-75
2022/08/29 12:31:43;;;;;;;1.10;0.90;;;28.90;1.00;;;;;;5100453;28;20449;-75
2022/08/29 12:34:46;;;;;;;1.47;0.93;;;29.20;1.00;;;;;;5089984;28;20460;-75
2022/08/29 12:37:29;;;;;;;0.90;0.80;;;29.40;1.00;;;;;;5086979;28;20464;-74
2022/08/29 12:40:21;;;;;;;1.33;1.00;;;29.70;1.00;;;;;;5098446;28;20889;-76
2022/08/29 12:43:05;;;;;;;1.13;0.90;;;29.50;1.00;;;;;;5096185;28;20560;-75
2022/08/29 12:45:34;;;;;;;1.10;0.90;;;29.90;1.00;;;;;;5094120;28;20966;-75
2022/08/29 12:48:07;;;;;;;1.60;0.90;;;30.10;1.00;;;;;;5093310;28;20437;-74
2022/08/29 12:50:42;;;;;;;1.30;0.90;;;30.20;1.00;;;;;;5096842;28;20488;-75
2022/08/29 12:53:17;;;;;;;1.10;0.80;;;29.90;1.00;;;;;;5095852;28;20486;-75
2022/08/29 12:55:47;;;;;;;2.30;1.00;;;29.90;1.00;;;;;;5097333;28;20453;-75
2022/08/29 12:58:29;;;;;;;1.80;1.00;;;30.10;1.00;;;;;;5095026;28;20740;-75
2022/08/29 13:00:56;;;;;;;2.07;0.80;;;30.20;1.00;;;;;;5099161;28;20433;-76
2022/08/29 13:03:25;;;;;;;1.27;1.00;;;29.90;1.00;;;;;;5094283;28;20449;-74
2022/08/29 13:06:13;;;;;;;1.73;0.93;;;29.40;1.00;;;;;;5095783;28;20994;-75
2022/08/29 13:08:40;;;;;;;1.07;0.80;;;28.60;1.00;;;;;;5094869;28;20470;-74
2022/08/29 13:11:11;;;;;;;1.10;0.80;;;28.10;1.00;;;;;;5095766;28;20442;-76
2022/08/29 13:13:38;;;;;;;1.30;1.00;;;27.80;1.00;;;;;;5094989;28;20477;-76
2022/08/29 13:16:08;;;;;;;1.87;1.10;;;27.60;1.00;;;;;;5094897;28;20638;-75
2022/08/29 13:18:35;;;;;;;0.90;0.80;;;27.60;1.00;;;;;;5093604;28;20457;-75
2022/08/29 13:21:10;;;;;;;1.30;0.80;;;27.80;1.00;;;;;;5094676;28;20532;-75
2022/08/29 13:23:44;;;;;;;1.30;1.00;;;28.20;1.00;;;;;;5092926;28;20467;-75